Aérodrome :
LOGIN :

S'inscrire | Disclaimer

   EN    FR    IT 

 










Légende :    VFR   VFR Marginal   IFR   IFR Intensif   IFR Très Intensif
Visi : 
Plafond : 
>= 8 km
>= 3000ft
5 à 8 km
1000 à 3000 ft
1500m à 5 km
500 à 1000 ft
800 à 1500m
200 à 500 ft
< 800m
< 200 ft
Symboles :   Orages  Brouillard  Fortes neiges  Fortes précipitations  Vent > 20 kt
SIGMETs :   Divers  Orages  Givrage  Turbulence  Onde Orograph.  Cendres Volcan.






- Altitude de l'aérodrome : 1247 ft
- Code IATA : PRG


LKPR - Praha Ruzyne

DERNIER METAR :
  • 062000Z 31013KT CAVOK 14/06 Q1017 NOSIG

METARs EXPIRÉS :
  • 061930Z 29018G28KT CAVOK 15/06 Q1016 NOSIG
  • 061914Z 29014G27KT CAVOK 17/03 Q1016 RMK REG QNH 1011
  • 061900Z 29011KT CAVOK 17/02 Q1015 NOSIG
  • 061830Z 30012KT CAVOK 18/03 Q1015 NOSIG
  • 061800Z 30012KT CAVOK 19/04 Q1014 NOSIG
  • 061730Z 31013KT CAVOK 19/04 Q1014 NOSIG

TAF TAF LKPR
Valide du 06 à 18h jusqu'au 08 à 00h UTC


061700Z 0618/0800 27013KT 9999 SCT045
TEMPO 0618/0620 31016G28KT
BECMG 0622/0700 26008KT CAVOK
TEMPO 0706/0717 SCT040
TEMPO 0714/0718 02003KT



MET'MAP, la Météo Aéronautique d'un coup d'oeil ! - Copyright ORBIFLY Décembre 2007 - Disclaimer

ORBIFLY MET'MAP TEAM :

Programmation & Développement : Alexandra Zaïnal
Sur une idée originale de : Baudouin d'Aumeries
Assistance à la programmation : Marc-Olivier Méhu
Soutien technique & logistique : Manuel Goepfert

Contact : metmap@orbifly.com




SOURCES & CREDITS :

   NOAA